sensor_id;sensor_type;location;lat;lon;timestamp;temperature;humidity
59651;DHT22;45954;49.768;8.636;2023-09-19T00:00:46;18.80;99.90
59651;DHT22;45954;49.768;8.636;2023-09-19T00:03:13;18.80;99.90
59651;DHT22;45954;49.768;8.636;2023-09-19T00:05:39;18.70;99.90
59651;DHT22;45954;49.768;8.636;2023-09-19T00:08:05;18.80;99.90
59651;DHT22;45954;49.768;8.636;2023-09-19T00:10:33;18.80;99.90
59651;DHT22;45954;49.768;8.636;2023-09-19T00:13:02;18.70;99.90
59651;DHT22;45954;49.768;8.636;2023-09-19T00:15:40;18.60;99.90
59651;DHT22;45954;49.768;8.636;2023-09-19T00:18:08;18.60;99.90
59651;DHT22;45954;49.768;8.636;2023-09-19T00:20:38;18.60;99.90
59651;DHT22;45954;49.768;8.636;2023-09-19T00:23:05;18.60;99.90
59651;DHT22;45954;49.768;8.636;2023-09-19T00:25:32;18.70;99.90
59651;DHT22;45954;49.768;8.636;2023-09-19T00:27:57;18.80;99.90
59651;DHT22;45954;49.768;8.636;2023-09-19T00:30:23;18.70;99.90
59651;DHT22;45954;49.768;8.636;2023-09-19T00:32:51;18.80;99.90
59651;DHT22;45954;49.768;8.636;2023-09-19T00:35:23;18.80;99.90
59651;DHT22;45954;49.768;8.636;2023-09-19T00:37:53;18.80;99.90
59651;DHT22;45954;49.768;8.636;2023-09-19T00:40:19;18.70;99.90
59651;DHT22;45954;49.768;8.636;2023-09-19T00:42:48;18.90;99.90
59651;DHT22;45954;49.768;8.636;2023-09-19T00:45:16;18.90;99.90
59651;DHT22;45954;49.768;8.636;2023-09-19T00:47:51;18.70;99.90
59651;DHT22;45954;49.768;8.636;2023-09-19T00:50:19;18.80;99.90
59651;DHT22;45954;49.768;8.636;2023-09-19T00:52:48;18.80;99.90
59651;DHT22;45954;49.768;8.636;2023-09-19T00:55:16;18.90;99.90
59651;DHT22;45954;49.768;8.636;2023-09-19T00:57:45;18.90;99.90
59651;DHT22;45954;49.768;8.636;2023-09-19T01:00:12;18.90;99.90
59651;DHT22;45954;49.768;8.636;2023-09-19T01:02:45;18.90;99.90
59651;DHT22;45954;49.768;8.636;2023-09-19T01:05:12;18.90;99.90
59651;DHT22;45954;49.768;8.636;2023-09-19T01:07:38;18.90;99.90
59651;DHT22;45954;49.768;8.636;2023-09-19T01:10:09;18.80;99.90
59651;DHT22;45954;49.768;8.636;2023-09-19T01:15:15;18.80;99.90
59651;DHT22;45954;49.768;8.636;2023-09-19T01:18:03;18.60;99.90
59651;DHT22;45954;49.768;8.636;2023-09-19T01:30:14;18.80;99.90
59651;DHT22;45954;49.768;8.636;2023-09-19T01:32:43;18.70;99.90
59651;DHT22;45954;49.768;8.636;2023-09-19T01:35:11;18.80;99.90
59651;DHT22;45954;49.768;8.636;2023-09-19T01:37:39;18.70;99.90
59651;DHT22;45954;49.768;8.636;2023-09-19T01:40:08;18.60;99.90
59651;DHT22;45954;49.768;8.636;2023-09-19T01:54:45;18.60;99.90
59651;DHT22;45954;49.768;8.636;2023-09-19T01:57:31;18.70;99.90
59651;DHT22;45954;49.768;8.636;2023-09-19T02:00:12;18.70;99.90
59651;DHT22;45954;49.768;8.636;2023-09-19T02:02:43;18.70;99.90
59651;DHT22;45954;49.768;8.636;2023-09-19T02:05:11;18.60;99.90
59651;DHT22;45954;49.768;8.636;2023-09-19T02:07:40;18.60;99.90
59651;DHT22;45954;49.768;8.636;2023-09-19T02:10:06;18.60;99.90
59651;DHT22;45954;49.768;8.636;2023-09-19T02:12:33;18.60;99.90
59651;DHT22;45954;49.768;8.636;2023-09-19T02:15:01;18.60;99.90
59651;DHT22;45954;49.768;8.636;2023-09-19T02:17:27;18.70;99.90
59651;DHT22;45954;49.768;8.636;2023-09-19T02:19:54;18.70;99.90
59651;DHT22;45954;49.768;8.636;2023-09-19T02:22:23;18.60;99.90
59651;DHT22;45954;49.768;8.636;2023-09-19T02:24:50;18.50;99.90
59651;DHT22;45954;49.768;8.636;2023-09-19T02:27:16;18.50;99.90
59651;DHT22;45954;49.768;8.636;2023-09-19T02:29:45;18.60;99.90
59651;DHT22;45954;49.768;8.636;2023-09-19T02:32:11;18.60;99.90
59651;DHT22;45954;49.768;8.636;2023-09-19T02:34:37;18.50;99.90
59651;DHT22;45954;49.768;8.636;2023-09-19T02:37:05;18.40;99.90
59651;DHT22;45954;49.768;8.636;2023-09-19T02:39:32;18.30;99.90
59651;DHT22;45954;49.768;8.636;2023-09-19T02:41:58;18.30;99.90
59651;DHT22;45954;49.768;8.636;2023-09-19T02:44:26;18.30;99.90
59651;DHT22;45954;49.768;8.636;2023-09-19T02:46:53;18.40;99.90
59651;DHT22;45954;49.768;8.636;2023-09-19T02:49:18;18.20;99.90
59651;DHT22;45954;49.768;8.636;2023-09-19T02:51:44;18.30;99.90
59651;DHT22;45954;49.768;8.636;2023-09-19T02:54:14;18.40;99.90
59651;DHT22;45954;49.768;8.636;2023-09-19T02:56:41;18.50;99.90
59651;DHT22;45954;49.768;8.636;2023-09-19T02:59:07;18.50;99.90
59651;DHT22;45954;49.768;8.636;2023-09-19T03:01:36;18.50;99.90
59651;DHT22;45954;49.768;8.636;2023-09-19T03:04:04;18.50;99.90
59651;DHT22;45954;49.768;8.636;2023-09-19T03:06:32;18.40;99.90
59651;DHT22;45954;49.768;8.636;2023-09-19T03:08:58;18.40;99.90
59651;DHT22;45954;49.768;8.636;2023-09-19T03:11:26;18.30;99.90
59651;DHT22;45954;49.768;8.636;2023-09-19T03:13:53;18.30;99.90
59651;DHT22;45954;49.768;8.636;2023-09-19T03:16:19;18.20;99.90
59651;DHT22;45954;49.768;8.636;2023-09-19T03:18:48;18.30;99.90
59651;DHT22;45954;49.768;8.636;2023-09-19T03:21:17;18.30;99.90
59651;DHT22;45954;49.768;8.636;2023-09-19T03:23:44;18.00;99.90
59651;DHT22;45954;49.768;8.636;2023-09-19T03:26:14;18.10;99.90
59651;DHT22;45954;49.768;8.636;2023-09-19T03:28:41;18.10;99.90
59651;DHT22;45954;49.768;8.636;2023-09-19T03:31:09;18.00;99.90
59651;DHT22;45954;49.768;8.636;2023-09-19T03:33:36;18.10;99.90
59651;DHT22;45954;49.768;8.636;2023-09-19T03:36:02;18.10;99.90
59651;DHT22;45954;49.768;8.636;2023-09-19T03:38:33;18.10;99.90
59651;DHT22;45954;49.768;8.636;2023-09-19T03:41:00;18.20;99.90
59651;DHT22;45954;49.768;8.636;2023-09-19T03:43:27;18.30;99.90
59651;DHT22;45954;49.768;8.636;2023-09-19T03:45:56;18.20;99.90
59651;DHT22;45954;49.768;8.636;2023-09-19T03:48:21;18.20;99.90
59651;DHT22;45954;49.768;8.636;2023-09-19T03:50:48;18.10;99.90
59651;DHT22;45954;49.768;8.636;2023-09-19T03:53:14;18.20;99.90
59651;DHT22;45954;49.768;8.636;2023-09-19T03:55:40;18.20;99.90
59651;DHT22;45954;49.768;8.636;2023-09-19T03:58:06;18.00;99.90
59651;DHT22;45954;49.768;8.636;2023-09-19T04:00:32;18.10;99.90
59651;DHT22;45954;49.768;8.636;2023-09-19T04:02:58;18.10;99.90
59651;DHT22;45954;49.768;8.636;2023-09-19T04:05:24;18.20;99.90
59651;DHT22;45954;49.768;8.636;2023-09-19T04:07:50;18.10;99.90
59651;DHT22;45954;49.768;8.636;2023-09-19T04:10:17;18.10;99.90
59651;DHT22;45954;49.768;8.636;2023-09-19T04:12:52;18.10;99.90
59651;DHT22;45954;49.768;8.636;2023-09-19T04:15:19;18.10;99.90
59651;DHT22;45954;49.768;8.636;2023-09-19T04:17:45;18.00;99.90
59651;DHT22;45954;49.768;8.636;2023-09-19T04:20:11;18.10;99.90
59651;DHT22;45954;49.768;8.636;2023-09-19T04:22:40;18.00;99.90
59651;DHT22;45954;49.768;8.636;2023-09-19T04:25:09;18.00;99.90
59651;DHT22;45954;49.768;8.636;2023-09-19T04:27:34;17.90;99.90
59651;DHT22;45954;49.768;8.636;2023-09-19T04:30:00;17.90;99.90
59651;DHT22;45954;49.768;8.636;2023-09-19T04:32:35;17.80;99.90
59651;DHT22;45954;49.768;8.636;2023-09-19T04:35:02;17.80;99.90
59651;DHT22;45954;49.768;8.636;2023-09-19T04:37:31;17.90;99.90
59651;DHT22;45954;49.768;8.636;2023-09-19T04:39:58;17.70;99.90
59651;DHT22;45954;49.768;8.636;2023-09-19T04:42:24;17.70;99.90
59651;DHT22;45954;49.768;8.636;2023-09-19T04:44:50;17.80;99.90
59651;DHT22;45954;49.768;8.636;2023-09-19T04:47:19;17.70;99.90
59651;DHT22;45954;49.768;8.636;2023-09-19T04:49:45;17.60;99.90
59651;DHT22;45954;49.768;8.636;2023-09-19T04:52:11;17.60;99.90
59651;DHT22;45954;49.768;8.636;2023-09-19T04:54:37;17.60;99.90
59651;DHT22;45954;49.768;8.636;2023-09-19T04:57:03;17.60;99.90
59651;DHT22;45954;49.768;8.636;2023-09-19T04:59:31;17.70;99.90
59651;DHT22;45954;49.768;8.636;2023-09-19T05:01:57;17.60;99.90
59651;DHT22;45954;49.768;8.636;2023-09-19T05:04:23;17.60;99.90
59651;DHT22;45954;49.768;8.636;2023-09-19T05:06:48;17.40;99.90
59651;DHT22;45954;49.768;8.636;2023-09-19T05:09:15;17.30;99.90
59651;DHT22;45954;49.768;8.636;2023-09-19T05:11:42;17.50;99.90
59651;DHT22;45954;49.768;8.636;2023-09-19T05:14:08;17.50;99.90
59651;DHT22;45954;49.768;8.636;2023-09-19T05:16:34;17.50;99.90
59651;DHT22;45954;49.768;8.636;2023-09-19T05:19:01;17.40;99.90
59651;DHT22;45954;49.768;8.636;2023-09-19T05:21:27;17.50;99.90
59651;DHT22;45954;49.768;8.636;2023-09-19T05:23:54;17.60;99.90
59651;DHT22;45954;49.768;8.636;2023-09-19T05:26:21;17.60;99.90
59651;DHT22;45954;49.768;8.636;2023-09-19T05:28:47;17.60;99.90
59651;DHT22;45954;49.768;8.636;2023-09-19T05:31:16;17.70;99.90
59651;DHT22;45954;49.768;8.636;2023-09-19T05:33:42;17.60;99.90
59651;DHT22;45954;49.768;8.636;2023-09-19T05:36:08;17.60;99.90
59651;DHT22;45954;49.768;8.636;2023-09-19T05:38:36;17.60;99.90
59651;DHT22;45954;49.768;8.636;2023-09-19T05:41:02;17.60;99.90
59651;DHT22;45954;49.768;8.636;2023-09-19T05:43:28;17.70;99.90
59651;DHT22;45954;49.768;8.636;2023-09-19T05:45:54;17.60;99.90
59651;DHT22;45954;49.768;8.636;2023-09-19T05:48:22;17.60;99.90
59651;DHT22;45954;49.768;8.636;2023-09-19T05:50:48;17.50;99.90
59651;DHT22;45954;49.768;8.636;2023-09-19T05:53:16;17.60;99.90
59651;DHT22;45954;49.768;8.636;2023-09-19T05:55:44;17.50;99.90
59651;DHT22;45954;49.768;8.636;2023-09-19T05:58:09;17.50;99.90
59651;DHT22;45954;49.768;8.636;2023-09-19T06:00:36;17.50;99.90
59651;DHT22;45954;49.768;8.636;2023-09-19T06:03:02;17.60;99.90
59651;DHT22;45954;49.768;8.636;2023-09-19T06:05:28;17.50;99.90
59651;DHT22;45954;49.768;8.636;2023-09-19T06:07:56;17.50;99.90
59651;DHT22;45954;49.768;8.636;2023-09-19T06:10:26;17.30;99.90
59651;DHT22;45954;49.768;8.636;2023-09-19T06:12:54;17.40;99.90
59651;DHT22;45954;49.768;8.636;2023-09-19T06:15:21;17.50;99.90
59651;DHT22;45954;49.768;8.636;2023-09-19T06:17:53;17.50;99.90
59651;DHT22;45954;49.768;8.636;2023-09-19T06:20:21;17.50;99.90
59651;DHT22;45954;49.768;8.636;2023-09-19T06:22:49;17.60;99.90
59651;DHT22;45954;49.768;8.636;2023-09-19T06:25:16;17.60;99.90
59651;DHT22;45954;49.768;8.636;2023-09-19T06:27:49;17.70;99.90
59651;DHT22;45954;49.768;8.636;2023-09-19T06:30:20;17.80;99.90
59651;DHT22;45954;49.768;8.636;2023-09-19T06:32:47;17.80;99.90
59651;DHT22;45954;49.768;8.636;2023-09-19T06:35:15;17.90;99.90
59651;DHT22;45954;49.768;8.636;2023-09-19T06:37:42;17.90;99.90
59651;DHT22;45954;49.768;8.636;2023-09-19T06:40:10;17.80;99.90
59651;DHT22;45954;49.768;8.636;2023-09-19T06:42:59;17.80;99.90
59651;DHT22;45954;49.768;8.636;2023-09-19T06:45:28;17.90;99.90
59651;DHT22;45954;49.768;8.636;2023-09-19T06:47:54;17.90;99.90
59651;DHT22;45954;49.768;8.636;2023-09-19T06:50:23;18.00;99.90
59651;DHT22;45954;49.768;8.636;2023-09-19T06:52:50;18.00;99.90
59651;DHT22;45954;49.768;8.636;2023-09-19T06:55:18;18.00;99.90
59651;DHT22;45954;49.768;8.636;2023-09-19T06:57:46;18.10;99.90
59651;DHT22;45954;49.768;8.636;2023-09-19T07:00:13;18.10;99.90
59651;DHT22;45954;49.768;8.636;2023-09-19T07:03:00;18.00;99.90
59651;DHT22;45954;49.768;8.636;2023-09-19T07:05:31;17.90;99.90
59651;DHT22;45954;49.768;8.636;2023-09-19T07:07:59;18.00;99.90
59651;DHT22;45954;49.768;8.636;2023-09-19T07:10:27;18.00;99.90
59651;DHT22;45954;49.768;8.636;2023-09-19T07:13:03;18.20;99.90
59651;DHT22;45954;49.768;8.636;2023-09-19T07:15:31;18.20;99.90
59651;DHT22;45954;49.768;8.636;2023-09-19T07:18:05;18.30;99.90
59651;DHT22;45954;49.768;8.636;2023-09-19T07:20:32;18.20;99.90
59651;DHT22;45954;49.768;8.636;2023-09-19T07:23:00;18.00;99.90
59651;DHT22;45954;49.768;8.636;2023-09-19T07:25:27;18.10;99.90
59651;DHT22;45954;49.768;8.636;2023-09-19T07:27:57;18.10;99.90
59651;DHT22;45954;49.768;8.636;2023-09-19T07:30:27;17.90;99.90
59651;DHT22;45954;49.768;8.636;2023-09-19T07:32:53;18.00;99.90
59651;DHT22;45954;49.768;8.636;2023-09-19T07:35:19;18.20;99.90
59651;DHT22;45954;49.768;8.636;2023-09-19T07:37:49;18.20;99.90
59651;DHT22;45954;49.768;8.636;2023-09-19T07:40:15;18.00;99.90
59651;DHT22;45954;49.768;8.636;2023-09-19T07:42:42;18.20;99.90
59651;DHT22;45954;49.768;8.636;2023-09-19T07:45:10;18.20;99.90
59651;DHT22;45954;49.768;8.636;2023-09-19T07:47:49;18.20;99.90
59651;DHT22;45954;49.768;8.636;2023-09-19T07:50:18;18.50;99.90
59651;DHT22;45954;49.768;8.636;2023-09-19T07:52:50;18.60;99.90
59651;DHT22;45954;49.768;8.636;2023-09-19T07:55:16;18.20;99.90
59651;DHT22;45954;49.768;8.636;2023-09-19T07:57:46;18.10;99.90
59651;DHT22;45954;49.768;8.636;2023-09-19T08:00:14;18.20;99.90
59651;DHT22;45954;49.768;8.636;2023-09-19T08:02:41;18.30;99.90
59651;DHT22;45954;49.768;8.636;2023-09-19T08:05:09;18.10;99.90
59651;DHT22;45954;49.768;8.636;2023-09-19T08:07:37;18.10;99.90
59651;DHT22;45954;49.768;8.636;2023-09-19T08:10:04;18.30;99.90
59651;DHT22;45954;49.768;8.636;2023-09-19T08:12:37;18.40;99.90
59651;DHT22;45954;49.768;8.636;2023-09-19T08:15:03;18.30;99.90
59651;DHT22;45954;49.768;8.636;2023-09-19T08:17:34;18.30;99.90
59651;DHT22;45954;49.768;8.636;2023-09-19T08:20:01;18.20;99.90
59651;DHT22;45954;49.768;8.636;2023-09-19T08:22:30;18.20;99.90
59651;DHT22;45954;49.768;8.636;2023-09-19T08:24:57;18.30;99.90
59651;DHT22;45954;49.768;8.636;2023-09-19T08:27:24;18.50;99.90
59651;DHT22;45954;49.768;8.636;2023-09-19T08:29:53;18.70;99.90
59651;DHT22;45954;49.768;8.636;2023-09-19T08:32:19;18.60;99.90
59651;DHT22;45954;49.768;8.636;2023-09-19T08:34:50;18.50;99.90
59651;DHT22;45954;49.768;8.636;2023-09-19T08:37:15;18.40;99.90
59651;DHT22;45954;49.768;8.636;2023-09-19T08:39:43;18.40;99.90
59651;DHT22;45954;49.768;8.636;2023-09-19T08:42:10;18.50;99.90
59651;DHT22;45954;49.768;8.636;2023-09-19T08:44:37;18.30;99.90
59651;DHT22;45954;49.768;8.636;2023-09-19T08:47:10;18.40;99.90
59651;DHT22;45954;49.768;8.636;2023-09-19T08:49:53;18.50;99.90
59651;DHT22;45954;49.768;8.636;2023-09-19T08:52:43;18.70;99.60
59651;DHT22;45954;49.768;8.636;2023-09-19T08:55:13;18.60;99.80
59651;DHT22;45954;49.768;8.636;2023-09-19T08:57:46;18.60;99.70
59651;DHT22;45954;49.768;8.636;2023-09-19T09:00:16;18.50;99.40
59651;DHT22;45954;49.768;8.636;2023-09-19T09:02:47;18.70;99.60
59651;DHT22;45954;49.768;8.636;2023-09-19T09:05:15;18.80;99.30
59651;DHT22;45954;49.768;8.636;2023-09-19T09:07:43;18.90;99.50
59651;DHT22;45954;49.768;8.636;2023-09-19T09:10:10;19.10;99.40
59651;DHT22;45954;49.768;8.636;2023-09-19T09:12:36;19.30;99.60
59651;DHT22;45954;49.768;8.636;2023-09-19T09:15:03;19.20;99.10
59651;DHT22;45954;49.768;8.636;2023-09-19T09:17:30;19.30;99.60
59651;DHT22;45954;49.768;8.636;2023-09-19T09:19:56;18.90;99.10
59651;DHT22;45954;49.768;8.636;2023-09-19T09:22:22;18.90;99.00
59651;DHT22;45954;49.768;8.636;2023-09-19T09:27:20;18.80;98.60
59651;DHT22;45954;49.768;8.636;2023-09-19T09:29:48;19.00;98.70
59651;DHT22;45954;49.768;8.636;2023-09-19T09:34:52;18.70;98.40
59651;DHT22;45954;49.768;8.636;2023-09-19T09:37:21;18.90;98.60
59651;DHT22;45954;49.768;8.636;2023-09-19T09:40:01;19.00;98.30
59651;DHT22;45954;49.768;8.636;2023-09-19T09:42:40;19.10;99.00
59651;DHT22;45954;49.768;8.636;2023-09-19T09:45:20;19.10;98.20
59651;DHT22;45954;49.768;8.636;2023-09-19T09:48:00;19.10;98.70
59651;DHT22;45954;49.768;8.636;2023-09-19T09:50:35;19.30;98.10
59651;DHT22;45954;49.768;8.636;2023-09-19T09:53:24;19.30;98.30
59651;DHT22;45954;49.768;8.636;2023-09-19T09:56:00;19.30;97.90
59651;DHT22;45954;49.768;8.636;2023-09-19T09:58:34;19.20;98.50
59651;DHT22;45954;49.768;8.636;2023-09-19T10:01:04;19.40;98.20
59651;DHT22;45954;49.768;8.636;2023-09-19T10:03:59;19.30;97.70
59651;DHT22;45954;49.768;8.636;2023-09-19T10:06:26;19.60;97.40
59651;DHT22;45954;49.768;8.636;2023-09-19T10:09:09;19.60;97.30
59651;DHT22;45954;49.768;8.636;2023-09-19T10:12:00;19.80;96.80
59651;DHT22;45954;49.768;8.636;2023-09-19T10:14:32;19.60;97.20
59651;DHT22;45954;49.768;8.636;2023-09-19T10:17:05;19.40;97.30
59651;DHT22;45954;49.768;8.636;2023-09-19T10:19:45;19.60;96.50
59651;DHT22;45954;49.768;8.636;2023-09-19T10:22:16;19.40;96.40
59651;DHT22;45954;49.768;8.636;2023-09-19T10:24:49;19.20;96.50
59651;DHT22;45954;49.768;8.636;2023-09-19T10:27:19;19.60;96.50
59651;DHT22;45954;49.768;8.636;2023-09-19T10:29:49;19.70;95.90
59651;DHT22;45954;49.768;8.636;2023-09-19T10:32:19;19.90;96.20
59651;DHT22;45954;49.768;8.636;2023-09-19T10:34:47;19.80;96.10
59651;DHT22;45954;49.768;8.636;2023-09-19T10:37:16;20.00;96.20
59651;DHT22;45954;49.768;8.636;2023-09-19T10:39:46;20.40;96.40
59651;DHT22;45954;49.768;8.636;2023-09-19T10:42:20;20.70;95.30
59651;DHT22;45954;49.768;8.636;2023-09-19T10:44:51;20.50;95.70
59651;DHT22;45954;49.768;8.636;2023-09-19T10:47:21;20.50;94.50
59651;DHT22;45954;49.768;8.636;2023-09-19T10:49:50;20.40;95.50
59651;DHT22;45954;49.768;8.636;2023-09-19T10:52:22;20.50;95.20
59651;DHT22;45954;49.768;8.636;2023-09-19T10:54:56;20.70;96.00
59651;DHT22;45954;49.768;8.636;2023-09-19T10:57:25;20.90;95.10
59651;DHT22;45954;49.768;8.636;2023-09-19T11:00:07;20.50;95.30
59651;DHT22;45954;49.768;8.636;2023-09-19T11:05:38;21.30;94.90
59651;DHT22;45954;49.768;8.636;2023-09-19T11:08:10;20.80;94.60
59651;DHT22;45954;49.768;8.636;2023-09-19T11:10:48;20.30;95.10
59651;DHT22;45954;49.768;8.636;2023-09-19T11:13:30;20.60;95.20
59651;DHT22;45954;49.768;8.636;2023-09-19T11:16:04;20.40;95.50
59651;DHT22;45954;49.768;8.636;2023-09-19T11:18:51;20.30;95.40
59651;DHT22;45954;49.768;8.636;2023-09-19T11:27:09;20.60;95.10
59651;DHT22;45954;49.768;8.636;2023-09-19T11:29:39;21.00;94.90
59651;DHT22;45954;49.768;8.636;2023-09-19T11:32:06;21.20;94.30
59651;DHT22;45954;49.768;8.636;2023-09-19T11:34:39;21.20;94.00
59651;DHT22;45954;49.768;8.636;2023-09-19T11:39:37;20.90;94.10
59651;DHT22;45954;49.768;8.636;2023-09-19T11:42:43;21.00;94.40
59651;DHT22;45954;49.768;8.636;2023-09-19T11:46:00;20.90;94.30
59651;DHT22;45954;49.768;8.636;2023-09-19T11:48:24;21.50;93.60
59651;DHT22;45954;49.768;8.636;2023-09-19T11:50:53;21.40;92.80
59651;DHT22;45954;49.768;8.636;2023-09-19T11:53:21;21.30;93.00
59651;DHT22;45954;49.768;8.636;2023-09-19T11:55:49;21.30;92.60
59651;DHT22;45954;49.768;8.636;2023-09-19T11:58:16;21.80;92.90
59651;DHT22;45954;49.768;8.636;2023-09-19T12:00:45;22.00;92.00
59651;DHT22;45954;49.768;8.636;2023-09-19T12:03:12;21.60;91.70
59651;DHT22;45954;49.768;8.636;2023-09-19T12:05:42;22.00;92.00
59651;DHT22;45954;49.768;8.636;2023-09-19T12:08:08;22.20;91.90
59651;DHT22;45954;49.768;8.636;2023-09-19T12:10:50;22.50;91.70
59651;DHT22;45954;49.768;8.636;2023-09-19T12:13:18;21.90;91.80
59651;DHT22;45954;49.768;8.636;2023-09-19T12:15:44;21.70;92.20
59651;DHT22;45954;49.768;8.636;2023-09-19T12:18:29;21.90;92.20
59651;DHT22;45954;49.768;8.636;2023-09-19T12:20:56;21.90;91.70
59651;DHT22;45954;49.768;8.636;2023-09-19T12:23:24;21.60;91.80
59651;DHT22;45954;49.768;8.636;2023-09-19T12:25:52;21.70;91.70
59651;DHT22;45954;49.768;8.636;2023-09-19T12:28:26;21.80;92.60
59651;DHT22;45954;49.768;8.636;2023-09-19T12:30:53;22.00;91.70
59651;DHT22;45954;49.768;8.636;2023-09-19T12:33:21;21.60;92.00
59651;DHT22;45954;49.768;8.636;2023-09-19T12:35:50;21.50;91.80
59651;DHT22;45954;49.768;8.636;2023-09-19T12:38:27;21.70;91.80
59651;DHT22;45954;49.768;8.636;2023-09-19T12:40:57;21.90;92.30
59651;DHT22;45954;49.768;8.636;2023-09-19T12:43:27;22.30;92.10
59651;DHT22;45954;49.768;8.636;2023-09-19T12:45:54;22.50;91.70
59651;DHT22;45954;49.768;8.636;2023-09-19T12:48:26;22.10;91.80
59651;DHT22;45954;49.768;8.636;2023-09-19T12:51:02;22.00;91.60
59651;DHT22;45954;49.768;8.636;2023-09-19T12:53:40;22.20;91.60
59651;DHT22;45954;49.768;8.636;2023-09-19T12:56:12;22.40;91.60
59651;DHT22;45954;49.768;8.636;2023-09-19T12:58:57;22.70;92.00
59651;DHT22;45954;49.768;8.636;2023-09-19T13:01:29;23.40;91.40
59651;DHT22;45954;49.768;8.636;2023-09-19T13:04:18;23.40;90.50
59651;DHT22;45954;49.768;8.636;2023-09-19T13:06:47;23.20;90.60
59651;DHT22;45954;49.768;8.636;2023-09-19T13:09:16;23.50;91.40
59651;DHT22;45954;49.768;8.636;2023-09-19T13:11:43;23.60;90.80
59651;DHT22;45954;49.768;8.636;2023-09-19T13:14:21;24.20;90.00
59651;DHT22;45954;49.768;8.636;2023-09-19T13:17:06;23.70;90.30
59651;DHT22;45954;49.768;8.636;2023-09-19T13:19:45;23.40;90.10
59651;DHT22;45954;49.768;8.636;2023-09-19T13:22:37;23.40;90.00
59651;DHT22;45954;49.768;8.636;2023-09-19T13:25:13;23.00;90.10
59651;DHT22;45954;49.768;8.636;2023-09-19T13:27:50;23.10;90.50
59651;DHT22;45954;49.768;8.636;2023-09-19T13:30:18;23.70;90.30
59651;DHT22;45954;49.768;8.636;2023-09-19T13:32:45;23.40;90.40
59651;DHT22;45954;49.768;8.636;2023-09-19T13:35:16;23.00;90.20
59651;DHT22;45954;49.768;8.636;2023-09-19T13:37:42;23.00;91.10
59651;DHT22;45954;49.768;8.636;2023-09-19T13:40:14;22.70;90.70
59651;DHT22;45954;49.768;8.636;2023-09-19T13:42:41;22.80;90.80
59651;DHT22;45954;49.768;8.636;2023-09-19T13:45:08;23.20;90.70
59651;DHT22;45954;49.768;8.636;2023-09-19T13:47:38;23.60;90.50
59651;DHT22;45954;49.768;8.636;2023-09-19T13:50:06;23.60;90.20
59651;DHT22;45954;49.768;8.636;2023-09-19T13:52:33;23.40;90.60
59651;DHT22;45954;49.768;8.636;2023-09-19T13:54:59;23.60;90.40
59651;DHT22;45954;49.768;8.636;2023-09-19T13:57:25;24.00;89.60
59651;DHT22;45954;49.768;8.636;2023-09-19T13:59:52;23.70;90.10
59651;DHT22;45954;49.768;8.636;2023-09-19T14:02:22;23.80;90.40
59651;DHT22;45954;49.768;8.636;2023-09-19T14:04:52;24.20;90.10
59651;DHT22;45954;49.768;8.636;2023-09-19T14:07:18;24.20;88.60
59651;DHT22;45954;49.768;8.636;2023-09-19T14:09:46;23.70;89.60
59651;DHT22;45954;49.768;8.636;2023-09-19T14:12:13;24.50;89.70
59651;DHT22;45954;49.768;8.636;2023-09-19T14:14:40;24.60;88.50
59651;DHT22;45954;49.768;8.636;2023-09-19T14:17:07;24.60;87.50
59651;DHT22;45954;49.768;8.636;2023-09-19T14:19:34;24.60;88.80
59651;DHT22;45954;49.768;8.636;2023-09-19T14:22:02;24.10;89.50
59651;DHT22;45954;49.768;8.636;2023-09-19T14:24:33;23.60;89.30
59651;DHT22;45954;49.768;8.636;2023-09-19T14:27:00;23.90;90.00
59651;DHT22;45954;49.768;8.636;2023-09-19T14:29:26;23.90;89.90
59651;DHT22;45954;49.768;8.636;2023-09-19T14:31:51;23.70;90.40
59651;DHT22;45954;49.768;8.636;2023-09-19T14:34:17;23.50;90.90
59651;DHT22;45954;49.768;8.636;2023-09-19T14:36:45;23.50;90.70
59651;DHT22;45954;49.768;8.636;2023-09-19T14:39:11;23.60;90.60
59651;DHT22;45954;49.768;8.636;2023-09-19T14:41:37;23.30;90.60
59651;DHT22;45954;49.768;8.636;2023-09-19T14:44:03;23.70;90.70
59651;DHT22;45954;49.768;8.636;2023-09-19T14:46:30;23.80;90.40
59651;DHT22;45954;49.768;8.636;2023-09-19T14:48:56;23.90;90.30
59651;DHT22;45954;49.768;8.636;2023-09-19T14:51:25;23.70;90.30
59651;DHT22;45954;49.768;8.636;2023-09-19T14:53:53;23.50;90.60
59651;DHT22;45954;49.768;8.636;2023-09-19T14:56:18;23.80;90.50
59651;DHT22;45954;49.768;8.636;2023-09-19T14:58:45;24.20;90.10
59651;DHT22;45954;49.768;8.636;2023-09-19T15:01:14;23.90;90.30
59651;DHT22;45954;49.768;8.636;2023-09-19T15:03:41;23.60;90.40
59651;DHT22;45954;49.768;8.636;2023-09-19T15:06:12;23.40;90.30
59651;DHT22;45954;49.768;8.636;2023-09-19T15:08:47;23.00;90.40
59651;DHT22;45954;49.768;8.636;2023-09-19T15:11:14;23.10;90.30
59651;DHT22;45954;49.768;8.636;2023-09-19T15:13:44;23.90;89.90
59651;DHT22;45954;49.768;8.636;2023-09-19T15:16:11;24.60;89.00
59651;DHT22;45954;49.768;8.636;2023-09-19T15:18:39;25.90;88.20
59651;DHT22;45954;49.768;8.636;2023-09-19T15:21:09;26.80;86.20
59651;DHT22;45954;49.768;8.636;2023-09-19T15:23:37;26.70;86.50
59651;DHT22;45954;49.768;8.636;2023-09-19T15:26:04;27.20;85.90
59651;DHT22;45954;49.768;8.636;2023-09-19T15:28:32;29.30;84.20
59651;DHT22;45954;49.768;8.636;2023-09-19T15:31:08;28.10;83.40
59651;DHT22;45954;49.768;8.636;2023-09-19T15:33:35;28.90;83.30
59651;DHT22;45954;49.768;8.636;2023-09-19T15:36:10;27.00;84.70
59651;DHT22;45954;49.768;8.636;2023-09-19T15:41:23;25.30;85.70
59651;DHT22;45954;49.768;8.636;2023-09-19T15:43:53;24.70;86.90
59651;DHT22;45954;49.768;8.636;2023-09-19T15:46:20;24.80;86.70
59651;DHT22;45954;49.768;8.636;2023-09-19T15:48:47;26.50;84.90
59651;DHT22;45954;49.768;8.636;2023-09-19T15:51:13;24.80;86.30
59651;DHT22;45954;49.768;8.636;2023-09-19T15:53:51;25.30;86.50
59651;DHT22;45954;49.768;8.636;2023-09-19T15:56:20;26.50;85.70
59651;DHT22;45954;49.768;8.636;2023-09-19T15:58:54;25.80;85.10
59651;DHT22;45954;49.768;8.636;2023-09-19T16:01:22;26.00;86.00
59651;DHT22;45954;49.768;8.636;2023-09-19T16:03:53;26.50;84.50
59651;DHT22;45954;49.768;8.636;2023-09-19T16:06:23;24.70;87.50
59651;DHT22;45954;49.768;8.636;2023-09-19T16:08:53;26.70;86.50
59651;DHT22;45954;49.768;8.636;2023-09-19T16:11:26;26.00;86.50
59651;DHT22;45954;49.768;8.636;2023-09-19T16:13:53;24.80;87.20
59651;DHT22;45954;49.768;8.636;2023-09-19T16:16:21;24.20;89.20
59651;DHT22;45954;49.768;8.636;2023-09-19T16:18:52;23.90;89.20
59651;DHT22;45954;49.768;8.636;2023-09-19T16:21:24;23.70;89.60
59651;DHT22;45954;49.768;8.636;2023-09-19T16:23:52;23.90;89.80
59651;DHT22;45954;49.768;8.636;2023-09-19T16:26:21;23.60;90.20
59651;DHT22;45954;49.768;8.636;2023-09-19T16:28:58;23.10;90.30